»·PEaware :: N4032H KSNA-KPOC

N4032H :: KSNA-KPOC

FLIGHT INFORMATION

Flight Status: Arrived
Operator: Privately registered:
United States
More flights under this callsign
Pilot: Dave V. (3470)
Aircraft: MOONEY M-20 201 202 205 220 ATS MSE
(M20P)
More flights by this aircraft type
Origin: KSNA John Wayne-Orange Co
United States
Destination: KPOC Brackett
United States
More flights between these airports :: More routes between these airports
Route: SLI V8 POXKU V363 POM
File this flight plan on PilotEdge
Remarks:
Altitude:
(Current/Filed)
5,000ft
Speed:
(Current/Filed)
170kts
Departed: 14-Aug-23 05:41 PM
Arrived: 14-Aug-23 05:58 PM
Distance/Time
Traveled:
25nm/0:16
Distance/Time
To Go:
Arrived

Flight Plot

Page will automatically refresh every two minutes.


Map Options




Map Legend


Flown Route
Filed Route
Departure Airport
Arrival Airport
Navaid (VOR, NDB)
Fix

Horizontal Profiles

Position Reports

Time Latitude Longitude Heading Altitude Ground
Speed
14-Aug-23 17:01 33.669471 -117.869786 41 58ft 0kts
14-Aug-23 17:02 33.669471 -117.869786 41 58ft 0kts
14-Aug-23 17:03 33.669471 -117.869786 41 58ft 0kts
14-Aug-23 17:04 33.669471 -117.869786 41 58ft 0kts
14-Aug-23 17:05 33.669471 -117.869786 41 58ft 0kts
14-Aug-23 17:06 33.669471 -117.869786 41 58ft 0kts
14-Aug-23 17:07 33.669471 -117.869786 41 58ft 0kts
14-Aug-23 17:08 33.669471 -117.869786 41 58ft 0kts
14-Aug-23 17:09 33.669471 -117.869786 41 58ft 0kts
14-Aug-23 17:10 33.669471 -117.869786 41 58ft 0kts
14-Aug-23 17:11 33.669471 -117.869786 41 58ft 0kts
14-Aug-23 17:12 33.669471 -117.869786 41 58ft 0kts
14-Aug-23 17:13 33.669471 -117.869786 41 58ft 0kts
14-Aug-23 17:14 33.669471 -117.869786 41 58ft 0kts
14-Aug-23 17:15 33.669471 -117.869786 41 58ft 0kts
14-Aug-23 17:16 33.669471 -117.869786 41 58ft 0kts
14-Aug-23 17:17 33.669471 -117.869786 41 58ft 0kts
14-Aug-23 17:18 33.669471 -117.869786 41 58ft 0kts
14-Aug-23 17:19 33.669471 -117.869786 41 58ft 0kts
14-Aug-23 17:20 33.669471 -117.869786 41 58ft 0kts
14-Aug-23 17:21 33.669471 -117.869786 41 58ft 0kts
14-Aug-23 17:22 33.669471 -117.869786 41 58ft 0kts
14-Aug-23 17:23 33.669471 -117.869786 41 58ft 0kts
14-Aug-23 17:24 33.669471 -117.869786 41 58ft 0kts
14-Aug-23 17:25 33.669471 -117.869786 41 58ft 0kts
14-Aug-23 17:26 33.669471 -117.869786 41 58ft 0kts
14-Aug-23 17:27 33.669471 -117.869786 41 58ft 0kts
14-Aug-23 17:28 33.669471 -117.869786 41 58ft 0kts
14-Aug-23 17:29 33.669471 -117.869786 41 58ft 0kts
14-Aug-23 17:30 33.669471 -117.869786 41 58ft 0kts
14-Aug-23 17:31 33.669471 -117.869786 41 58ft 0kts
14-Aug-23 17:32 33.669471 -117.869786 41 58ft 0kts
14-Aug-23 17:33 33.669471 -117.869786 41 58ft 0kts
14-Aug-23 17:34 33.669471 -117.869786 41 58ft 0kts
14-Aug-23 17:35 33.671266 -117.868746 41 58ft 28kts
14-Aug-23 17:36 33.673654 -117.867007 332 58ft 7kts
14-Aug-23 17:37 33.676971 -117.865183 30 58ft 21kts
14-Aug-23 17:38 33.679916 -117.863559 316 58ft 0kts
14-Aug-23 17:39 33.680077 -117.864163 236 58ft 7kts
14-Aug-23 17:40 33.664106 -117.875974 235 713ft 89kts
14-Aug-23 17:41 33.650208 -117.900263 228 2019ft 90kts
14-Aug-23 17:42 33.650998 -117.927736 315 3262ft 109kts
14-Aug-23 17:43 33.676565 -117.949556 313 4430ft 117kts
14-Aug-23 17:44 33.703768 -117.976759 315 4958ft 157kts
14-Aug-23 17:45 33.738156 -118.011273 316 4975ft 177kts
14-Aug-23 17:46 33.778996 -118.027868 21 4966ft 192kts
14-Aug-23 17:47 33.802782 -117.977968 75 4979ft 188kts
14-Aug-23 17:48 33.819324 -117.916169 76 4986ft 187kts
14-Aug-23 17:49 33.835025 -117.855508 76 4990ft 186kts
14-Aug-23 17:50 33.851967 -117.796915 55 4984ft 191kts
14-Aug-23 17:51 33.899487 -117.783497 356 4982ft 171kts
14-Aug-23 17:52 33.946800 -117.784512 355 4497ft 181kts
14-Aug-23 17:53 33.997790 -117.785572 355 3515ft 186kts
14-Aug-23 17:54 34.046959 -117.786514 354 2744ft 164kts
14-Aug-23 17:55 34.080000 -117.761733 12 1504ft 98kts
14-Aug-23 17:56 34.091053 -117.776476 271 1002ft 62kts
14-Aug-23 17:57 34.090663 -117.783360 280 989ft 12kts

Navigation Log

Ident Type
Flight plan parsing failed, navigation log unavailable